St. Andrews — WDC2864 — position and weather

sailwx.info

Track history (hours):
 
Tides and Currents Weather Stations Pressure Air Temp Water Temp Dewpoint Dewpoint Depression Visibility Wind Speed Wind Dir Waves Ship Positions

St. Andrews

Owner: Harley Marine Services, Inc, Seattle, WA. More information available from US FCC via Universal Licensing System and Coast Guard Vessel Documentation Center.

Last reported at 2018-Feb-23 06:40 UTC. Time now 2018-Feb-23 18:45 UTC.
Position N 40°32' W 074°15'.

Length 24 m.

Type: Tug. MMSI: 366998820.

Date/timePositionNaut miles runAvg speedWind from/ knotsBaromVisibWave heightAir tempDewpointWater temp
2018-Feb-23 06:40N 40°32' W 074°15'1 3.3
2018-Feb-23 06:17N 40°33' W 074°14'3 6.2
2018-Feb-23 05:52N 40°36' W 074°12'2 6.7
2018-Feb-23 05:30N 40°38' W 074°12'4 7.1
2018-Feb-23 05:00N 40°39' W 074°07'3 6.7
2018-Feb-23 04:30N 40°39' W 074°03'2 5.0
2018-Feb-23 04:00N 40°40' W 074°00'0 0.0
2018-Feb-23 03:30N 40°40' W 073°60'0 0.0
2018-Feb-23 03:00N 40°40' W 073°60'0 0.0
2018-Feb-23 02:30N 40°40' W 074°00'0 0.0
2018-Feb-23 02:00N 40°40' W 074°00'0 0.0
2018-Feb-23 01:30N 40°40' W 073°60'0 0.0
2018-Feb-23 01:00N 40°40' W 074°00'0 0.2
2018-Feb-23 00:30N 40°40' W 074°00'0 0.0
2018-Feb-23 00:00N 40°40' W 074°00'0 0.0
2018-Feb-22 23:30N 40°40' W 074°00'0 0.0
2018-Feb-22 23:00N 40°40' W 074°00'0 0.0
2018-Feb-22 22:30N 40°40' W 074°00'0 0.0
2018-Feb-22 22:00N 40°40' W 074°00'0 0.0
2018-Feb-22 21:30N 40°40' W 074°00'0 0.0
2018-Feb-22 21:00N 40°40' W 074°00'1 2.3
2018-Feb-22 20:30N 40°40' W 074°01'4 8.3
2018-Feb-22 20:00N 40°44' W 073°58'1 2.6
2018-Feb-22 19:30N 40°44' W 073°56'0 0.1
2018-Feb-22 18:58N 40°44' W 073°56'0 0.0
2018-Feb-22 18:30N 40°44' W 073°56'0 0.0
2018-Feb-22 18:00N 40°44' W 073°56'0 0.0
2018-Feb-22 17:30N 40°44' W 073°56'0 0.0
2018-Feb-22 17:00N 40°44' W 073°56'0 0.0
2018-Feb-22 16:30N 40°44' W 073°57'0 0.0
2018-Feb-22 15:59N 40°44' W 073°56'0 0.0
2018-Feb-22 15:30N 40°44' W 073°56'0 0.0
2018-Feb-22 15:00N 40°44' W 073°56'0 0.0
2018-Feb-22 14:29N 40°44' W 073°57'0 0.0
2018-Feb-22 13:59N 40°44' W 073°56'0 0.0
2018-Feb-22 13:30N 40°44' W 073°56'0 0.2
2018-Feb-22 13:00N 40°44' W 073°57'1 2.3
2018-Feb-22 12:30N 40°44' W 073°58'2 4.1
2018-Feb-22 12:00N 40°42' W 073°60'3 5.1
2018-Feb-22 11:30N 40°41' W 074°02'0 0.6
2018-Feb-22 11:00N 40°41' W 074°03'0 0.0
2018-Feb-22 10:30N 40°41' W 074°03'0 0.0
2018-Feb-22 10:00N 40°41' W 074°03'1 2.7
2018-Feb-22 09:30N 40°40' W 074°04'0 0.0
2018-Feb-22 09:00N 40°40' W 074°04'0 0.0
2018-Feb-22 08:30N 40°40' W 074°04'0 0.0
2018-Feb-22 08:00N 40°40' W 074°04'0 0.0
2018-Feb-22 07:30N 40°40' W 074°04'0 0.0
2018-Feb-22 07:00N 40°40' W 074°04'0 0.0
2018-Feb-22 06:30N 40°40' W 074°04'0 0.0
2018-Feb-22 06:00N 40°40' W 074°04'0 0.0
2018-Feb-22 05:30N 40°40' W 074°04'0 0.0
2018-Feb-22 05:00N 40°40' W 074°04'0 0.0
2018-Feb-22 04:30N 40°40' W 074°04'0 0.0
2018-Feb-22 04:00N 40°40' W 074°04'0 0.0
2018-Feb-22 03:30N 40°40' W 074°04'0 0.0
2018-Feb-22 03:00N 40°40' W 074°04'0 0.0
2018-Feb-22 02:30N 40°40' W 074°04'0 0.0
2018-Feb-22 02:00N 40°40' W 074°04'3 6.1
2018-Feb-22 01:30N 40°40' W 074°00'0 0.0
2018-Feb-22 01:00N 40°40' W 074°00'0 0.0
2018-Feb-22 00:30N 40°40' W 074°00'0 0.0
2018-Feb-22 00:00N 40°40' W 074°00'3 6.6
2018-Feb-21 23:30N 40°39' W 074°04'4 8.1
2018-Feb-21 23:00N 40°38' W 074°09'0 0.1
2018-Feb-21 22:30N 40°38' W 074°09'2 4.4
2018-Feb-21 22:00N 40°39' W 074°07'2 3.1
2018-Feb-21 21:30N 40°39' W 074°05'2 4.9
2018-Feb-21 21:00N 40°39' W 074°01'1 2.2
2018-Feb-21 20:30N 40°40' W 074°00'0 0.0
2018-Feb-21 20:00N 40°40' W 074°00'0 0.0
2018-Feb-21 19:30N 40°40' W 074°00'0 0.0
2018-Feb-21 19:00N 40°40' W 074°00'0 0.0
2018-Feb-21 18:30N 40°40' W 074°00'0 0.2
2018-Feb-21 18:00N 40°40' W 074°00'3 5.4
2018-Feb-21 17:30N 40°39' W 074°04'0 0.1
2018-Feb-21 17:00N 40°39' W 074°04'1 1.5
2018-Feb-21 16:30N 40°40' W 074°04'1 2.2
2018-Feb-21 16:00N 40°39' W 074°03'2 4.4
2018-Feb-21 15:30N 40°40' W 074°00'0 0.1
2018-Feb-21 15:00N 40°40' W 074°00'3 5.8
2018-Feb-21 14:30N 40°39' W 074°04'4 8.8
2018-Feb-21 14:00N 40°38' W 074°09'0 0.4
2018-Feb-21 13:30N 40°38' W 074°09'3 5.9
2018-Feb-21 13:00N 40°39' W 074°05'0 0.0
2018-Feb-21 12:30N 40°39' W 074°05'0 0.2
2018-Feb-21 12:00N 40°39' W 074°05'0 0.0
2018-Feb-21 11:30N 40°39' W 074°05'1 1.2
2018-Feb-21 11:00N 40°39' W 074°05'1 2.0
2018-Feb-21 10:30N 40°40' W 074°05'0 0.0
2018-Feb-21 10:00N 40°40' W 074°05'0 0.0
2018-Feb-21 09:30N 40°40' W 074°05'0 0.0
2018-Feb-21 09:00N 40°40' W 074°05'0 0.0
2018-Feb-21 08:30N 40°40' W 074°05'0 0.0
2018-Feb-21 08:00N 40°40' W 074°05'0 0.0
2018-Feb-21 07:30N 40°40' W 074°05'0 0.0
2018-Feb-21 07:00N 40°40' W 074°05'0 0.0
2018-Feb-21 06:30N 40°40' W 074°05'0 0.0
2018-Feb-21 05:58N 40°40' W 074°05'0 0.0
2018-Feb-21 05:30N 40°40' W 074°05'0 0.0
2018-Feb-21 05:00N 40°40' W 074°05'1 2.4
2018-Feb-21 04:30N 40°39' W 074°05'0 0.5
2018-Feb-21 04:00N 40°39' W 074°06'2 3.9
2018-Feb-21 03:30N 40°39' W 074°08'1 2.5
2018-Feb-21 03:00N 40°39' W 074°10'0 0.1
2018-Feb-21 02:30N 40°39' W 074°10'0 0.0
2018-Feb-21 01:59N 40°39' W 074°10'0 0.0
2018-Feb-21 01:30N 40°39' W 074°10'0 0.0
2018-Feb-21 00:59N 40°39' W 074°10'0 0.0
2018-Feb-21 00:22N 40°39' W 074°10'0 0.0
2018-Feb-20 23:54N 40°39' W 074°10'0 0.0
2018-Feb-20 23:28N 40°39' W 074°10'0 0.0
2018-Feb-20 23:00N 40°39' W 074°10'1 1.1
2018-Feb-20 22:29N 40°38' W 074°09'4 8.4
2018-Feb-20 22:00N 40°39' W 074°04'3 6.2
2018-Feb-20 21:30N 40°40' W 074°00'0 0.0
2018-Feb-20 21:00N 40°40' W 074°00'0 0.0
2018-Feb-20 20:30N 40°40' W 074°00'0 0.0
2018-Feb-20 20:00N 40°40' W 074°00'0 0.0
2018-Feb-20 19:30N 40°40' W 074°00'0 0.0
2018-Feb-20 19:00N 40°40' W 074°00'0 0.0
2018-Feb-20 18:30N 40°40' W 074°00'0 0.0
2018-Feb-20 18:00N 40°40' W 074°00'0 0.0
2018-Feb-20 17:30N 40°40' W 074°00'0 0.0
2018-Feb-20 17:00N 40°40' W 074°00'0 0.0
2018-Feb-20 16:30N 40°40' W 074°00'0 0.0
2018-Feb-20 16:00N 40°40' W 074°00'0 0.0
2018-Feb-20 15:30N 40°40' W 074°00'3 5.6
2018-Feb-20 15:00N 40°40' W 074°04'0 0.8
2018-Feb-20 14:30N 40°40' W 074°04'0 0.0
2018-Feb-20 14:00N 40°40' W 074°04'0 0.0
2018-Feb-20 13:30N 40°40' W 074°04'0 0.0
2018-Feb-20 13:00N 40°40' W 074°04'0 0.0
2018-Feb-20 12:30N 40°40' W 074°04'0 0.0
2018-Feb-20 12:00N 40°40' W 074°04'0 0.0
2018-Feb-20 11:30N 40°40' W 074°04'0 0.0
2018-Feb-20 11:00N 40°40' W 074°04'1 2.0
2018-Feb-20 10:30N 40°39' W 074°05'0 0.6
2018-Feb-20 10:00N 40°39' W 074°05'3 5.7
2018-Feb-20 09:30N 40°40' W 074°02'1 1.2
2018-Feb-20 09:00N 40°40' W 074°01'0 0.0
2018-Feb-20 08:30N 40°40' W 074°01'0 0.0
2018-Feb-20 08:00N 40°40' W 074°01'0 0.0
2018-Feb-20 07:29N 40°40' W 074°01'0 0.0
2018-Feb-20 07:00N 40°40' W 074°01'0 0.0
2018-Feb-20 06:29N 40°40' W 074°01'0 0.0
2018-Feb-20 06:00N 40°40' W 074°01'0 0.0
2018-Feb-20 05:30N 40°40' W 074°01'0 0.0
2018-Feb-20 05:00N 40°40' W 074°01'0 0.0
2018-Feb-20 04:30N 40°40' W 074°01'0 0.0
2018-Feb-20 04:00N 40°40' W 074°01'0 0.0
2018-Feb-20 03:30N 40°40' W 074°01'0 0.0
2018-Feb-20 03:00N 40°40' W 074°01'0 0.0
2018-Feb-20 02:30N 40°40' W 074°01'0 0.0
2018-Feb-20 02:00N 40°40' W 074°01'0 0.0
2018-Feb-20 01:30N 40°40' W 074°01'0 0.0
2018-Feb-20 01:00N 40°40' W 074°01'0 0.0
2018-Feb-20 00:30N 40°40' W 074°01'0 0.0
2018-Feb-20 00:00N 40°40' W 074°01'0 0.0
2018-Feb-19 23:30N 40°40' W 074°01'0 0.0
2018-Feb-19 23:00N 40°40' W 074°01'0 0.0
2018-Feb-19 22:30N 40°40' W 074°01'0 0.0
2018-Feb-19 22:00N 40°40' W 074°01'0 0.0
2018-Feb-19 21:29N 40°40' W 074°01'0 0.0
2018-Feb-19 21:00N 40°40' W 074°01'0 0.0
2018-Feb-19 20:30N 40°40' W 074°01'2 3.3
2018-Feb-19 20:00N 40°41' W 074°03'2 3.0
2018-Feb-19 19:30N 40°40' W 074°05'0 0.2
2018-Feb-19 19:00N 40°40' W 074°05'0 0.0
2018-Feb-19 18:30N 40°40' W 074°05'0 0.0
2018-Feb-19 18:00N 40°40' W 074°05'0 0.0
2018-Feb-19 17:30N 40°40' W 074°05'0 0.0
2018-Feb-19 16:59N 40°40' W 074°05'0 0.0
2018-Feb-19 16:30N 40°40' W 074°05'0 0.0
2018-Feb-19 16:00N 40°40' W 074°05'0 0.0
2018-Feb-19 15:30N 40°40' W 074°05'0 0.0
2018-Feb-19 15:00N 40°40' W 074°05'0 0.0
2018-Feb-19 14:30N 40°40' W 074°05'0 0.0
2018-Feb-19 14:00N 40°40' W 074°05'0 0.0
2018-Feb-19 13:30N 40°40' W 074°05'0 0.0
2018-Feb-19 13:00N 40°40' W 074°05'0 0.0
2018-Feb-19 12:30N 40°40' W 074°05'0 0.0
2018-Feb-19 12:00N 40°40' W 074°05'0 0.0
2018-Feb-19 11:30N 40°40' W 074°05'0 0.0
2018-Feb-19 11:00N 40°40' W 074°05'0 0.0
2018-Feb-19 10:30N 40°40' W 074°05'0 0.0
2018-Feb-19 09:59N 40°40' W 074°05'0 0.1
2018-Feb-19 09:30N 40°40' W 074°05'1 2.6
2018-Feb-19 08:59N 40°39' W 074°05'3 5.1
2018-Feb-19 08:28N 40°39' W 074°09'0 0.7
2018-Feb-19 08:00N 40°40' W 074°09'0 0.0
2018-Feb-19 07:30N 40°40' W 074°09'0 0.0
2018-Feb-19 07:00N 40°40' W 074°09'0 0.0
2018-Feb-19 06:30N 40°40' W 074°09'0 0.0
2018-Feb-19 06:00N 40°40' W 074°09'0 0.0
2018-Feb-19 05:30N 40°40' W 074°09'0 0.0
2018-Feb-19 05:00N 40°40' W 074°09'0 0.0
2018-Feb-19 04:30N 40°40' W 074°09'0 0.0
2018-Feb-19 04:00N 40°40' W 074°09'0 0.0
2018-Feb-19 03:30N 40°40' W 074°09'0 0.0
2018-Feb-19 03:00N 40°40' W 074°09'0 0.0
2018-Feb-19 02:30N 40°40' W 074°09'0 0.0
2018-Feb-19 02:00N 40°40' W 074°09'0 0.0
2018-Feb-19 01:30N 40°40' W 074°09'0 0.0
2018-Feb-19 01:00N 40°40' W 074°09'0 0.0
2018-Feb-19 00:30N 40°40' W 074°09'0 0.0
2018-Feb-19 00:00N 40°40' W 074°09'0 0.0
2018-Feb-18 23:30N 40°40' W 074°09'0 0.0
2018-Feb-18 23:00N 40°40' W 074°09'0 0.0
2018-Feb-18 22:30N 40°40' W 074°09'1 2.7
2018-Feb-18 22:00N 40°39' W 074°08'3 6.7
2018-Feb-18 21:30N 40°40' W 074°04'1 2.3
2018-Feb-18 21:00N 40°41' W 074°03'4 8.2
2018-Feb-18 20:29N 40°39' W 074°08'3 6.5
2018-Feb-18 20:00N 40°38' W 074°12'0 0.0
2018-Feb-18 19:30N 40°38' W 074°12'0 0.0
2018-Feb-18 19:00N 40°38' W 074°12'2 3.7
2018-Feb-18 18:30N 40°37' W 074°12'1 1.2
2018-Feb-18 18:00N 40°36' W 074°12'2 3.2
2018-Feb-18 17:27N 40°38' W 074°12'0 0.0
2018-Feb-18 17:00N 40°38' W 074°12'0 0.2
2018-Feb-18 16:25N 40°38' W 074°12'2 5.3
2018-Feb-18 16:00N 40°39' W 074°09'5 9.0
2018-Feb-18 15:30N 40°40' W 074°04'2 4.4
2018-Feb-18 15:00N 40°40' W 074°01'1 1.3
2018-Feb-18 14:30N 40°40' W 074°00'0 0.0
2018-Feb-18 14:00N 40°40' W 074°00'0 0.0
2018-Feb-18 13:30N 40°40' W 074°00'0 0.0
2018-Feb-18 13:00N 40°40' W 074°00'0 0.0
2018-Feb-18 12:30N 40°40' W 074°00'0 0.1
2018-Feb-18 12:00N 40°40' W 074°00'0 0.0
2018-Feb-18 11:30N 40°40' W 074°00'0 0.0
2018-Feb-18 10:59N 40°40' W 074°00'0 0.0
2018-Feb-18 10:30N 40°40' W 074°00'0 0.0
2018-Feb-18 10:00N 40°40' W 074°00'0 0.0
2018-Feb-18 09:30N 40°40' W 074°00'0 0.0
2018-Feb-18 09:00N 40°40' W 074°00'0 0.0
2018-Feb-18 08:30N 40°40' W 074°00'0 0.0
2018-Feb-18 08:00N 40°40' W 074°00'0 0.0
2018-Feb-18 07:30N 40°40' W 074°00'0 0.0
2018-Feb-18 07:00N 40°40' W 074°00'0 0.0
2018-Feb-18 06:30N 40°40' W 074°00'0 0.0
2018-Feb-18 06:00N 40°40' W 074°00'0 0.0
2018-Feb-18 05:30N 40°40' W 074°00'0 0.0
2018-Feb-18 05:00N 40°40' W 074°00'0 0.0
2018-Feb-18 04:28N 40°40' W 074°00'0 0.0
2018-Feb-18 04:00N 40°40' W 074°00'0 0.0
2018-Feb-18 03:30N 40°40' W 074°00'0 0.0
2018-Feb-18 03:00N 40°40' W 074°00'0 0.0
2018-Feb-18 02:30N 40°40' W 074°00'0 0.0
2018-Feb-18 02:00N 40°40' W 074°00'0 0.0
2018-Feb-18 01:30N 40°40' W 074°00'0 0.0
2018-Feb-18 01:00N 40°40' W 074°00'0 0.0
2018-Feb-18 00:30N 40°40' W 074°00'1 1.0
2018-Feb-18 00:00N 40°40' W 074°01'4 7.0
2018-Feb-17 23:30N 40°37' W 074°03'4 7.6
2018-Feb-17 23:00N 40°34' W 073°59'3 6.5
2018-Feb-17 22:29N 40°34' W 073°54'3 6.4
2018-Feb-17 22:00N 40°35' W 073°51'4 6.6
2018-Feb-17 21:28N 40°37' W 073°47'10 1.1
2018-Feb-17 11:59N 40°34' W 073°59'3 5.2
2018-Feb-17 11:30N 40°35' W 074°02'3 5.6
2018-Feb-17 11:00N 40°38' W 074°03'3 5.4
2018-Feb-17 10:30N 40°41' W 074°03'0 0.0
2018-Feb-17 10:00N 40°41' W 074°03'0 0.0
2018-Feb-17 09:30N 40°41' W 074°03'0 0.0
2018-Feb-17 09:00N 40°41' W 074°03'0 0.0
2018-Feb-17 08:30N 40°41' W 074°03'0 0.0
2018-Feb-17 08:00N 40°41' W 074°03'0 0.0
2018-Feb-17 07:30N 40°41' W 074°03'0 0.0
2018-Feb-17 07:00N 40°41' W 074°03'0 0.0
2018-Feb-17 06:30N 40°41' W 074°03'0 0.0
2018-Feb-17 06:00N 40°41' W 074°03'0 0.0
2018-Feb-17 05:30N 40°41' W 074°03'0 0.0
2018-Feb-17 05:00N 40°41' W 074°03'0 0.0
2018-Feb-17 04:30N 40°41' W 074°03'0 0.0
2018-Feb-17 04:00N 40°41' W 074°03'0 0.1
2018-Feb-17 03:30N 40°41' W 074°03'0 0.0
2018-Feb-17 03:00N 40°41' W 074°03'0 0.0
2018-Feb-17 02:30N 40°41' W 074°03'0 0.0
2018-Feb-17 02:00N 40°41' W 074°03'0 0.0
2018-Feb-17 01:30N 40°41' W 074°03'0 0.0
2018-Feb-17 01:00N 40°41' W 074°03'0 0.0
2018-Feb-17 00:30N 40°41' W 074°03'0 0.6
2018-Feb-17 00:00N 40°41' W 074°03'2 4.4
2018-Feb-16 23:30N 40°39' W 074°05'2 4.5
2018-Feb-16 23:00N 40°39' W 074°08'1 2.8
2018-Feb-16 22:30N 40°40' W 074°08'3 5.3
2018-Feb-16 22:00N 40°42' W 074°07'0 0.2
2018-Feb-16 21:30N 40°42' W 074°07'0 0.0
2018-Feb-16 21:00N 40°42' W 074°07'0 0.0
2018-Feb-16 20:30N 40°42' W 074°07'0 0.0
2018-Feb-16 20:00N 40°42' W 074°07'0 0.0
2018-Feb-16 19:30N 40°42' W 074°07'0 0.0
2018-Feb-16 19:00N 40°42' W 074°07'0 0.0
2018-Feb-16 18:30N 40°42' W 074°07'0 0.0
2018-Feb-16 18:00N 40°42' W 074°07'0 0.0
2018-Feb-16 17:30N 40°42' W 074°07'0 0.0
2018-Feb-16 17:00N 40°42' W 074°07'0 0.0
2018-Feb-16 16:30N 40°42' W 074°07'0 0.0
2018-Feb-16 16:00N 40°42' W 074°07'0 0.0
2018-Feb-16 15:30N 40°42' W 074°07'0 0.0
2018-Feb-16 15:00N 40°42' W 074°07'0 0.0
2018-Feb-16 14:30N 40°42' W 074°07'0 0.0
2018-Feb-16 13:58N 40°42' W 074°07'0 0.1
2018-Feb-16 13:30N 40°42' W 074°07'0 0.0
2018-Feb-16 13:00N 40°42' W 074°07'2 3.9
2018-Feb-16 12:30N 40°41' W 074°08'2 4.2
2018-Feb-16 12:00N 40°39' W 074°06'2 4.0
2018-Feb-16 11:30N 40°39' W 074°04'3 5.6
2018-Feb-16 10:59N 40°40' W 074°00'0 0.0
2018-Feb-16 10:30N 40°40' W 074°00'1 1.1
2018-Feb-16 10:00N 40°40' W 074°01'3 6.0
2018-Feb-16 09:30N 40°39' W 074°05'1 1.9
2018-Feb-16 09:00N 40°39' W 074°06'0 0.0
2018-Feb-16 08:30N 40°39' W 074°06'0 0.0
2018-Feb-16 08:00N 40°39' W 074°06'0 0.0
2018-Feb-16 07:30N 40°39' W 074°06'0 0.0
2018-Feb-16 07:00N 40°39' W 074°06'0 0.0
2018-Feb-16 06:29N 40°39' W 074°06'0 0.0
2018-Feb-16 05:59N 40°39' W 074°06'0 0.0
2018-Feb-16 05:30N 40°39' W 074°06'0 0.0
2018-Feb-16 05:00N 40°39' W 074°06'0 0.0
2018-Feb-16 04:30N 40°39' W 074°06'0 0.0
2018-Feb-16 04:00N 40°39' W 074°06'0 0.0
2018-Feb-16 03:30N 40°39' W 074°06'0 0.0
2018-Feb-16 03:00N 40°39' W 074°06'0 0.0
2018-Feb-16 02:30N 40°39' W 074°06'0 0.0
2018-Feb-16 02:00N 40°39' W 074°06'3 6.3
2018-Feb-16 01:30N 40°41' W 074°03'0 0.3
2018-Feb-16 01:00N 40°41' W 074°03'0 0.0
2018-Feb-16 00:30N 40°41' W 074°03'0 0.1
2018-Feb-16 00:00N 40°41' W 074°03'0 0.1
2018-Feb-15 23:30N 40°41' W 074°03'2 3.7
2018-Feb-15 23:00N 40°40' W 074°01'1 1.2
2018-Feb-15 22:30N 40°40' W 074°00'0 0.0
2018-Feb-15 22:00N 40°40' W 074°00'0 0.0
2018-Feb-15 21:30N 40°40' W 074°00'0 0.0
2018-Feb-15 21:00N 40°40' W 074°00'0 0.0
2018-Feb-15 20:30N 40°40' W 074°00'0 0.0
2018-Feb-15 20:00N 40°40' W 074°00'0 0.0
2018-Feb-15 19:30N 40°40' W 074°00'0 0.0
2018-Feb-15 19:00N 40°40' W 074°00'0 0.0
2018-Feb-15 18:30N 40°40' W 074°00'0 0.0
2018-Feb-15 18:00N 40°40' W 074°00'0 0.0
2018-Feb-15 17:30N 40°40' W 074°00'0 0.0
2018-Feb-15 17:00N 40°40' W 074°00'0 0.0
2018-Feb-15 16:30N 40°40' W 074°00'0 0.0
2018-Feb-15 16:00N 40°40' W 074°00'2 3.2
2018-Feb-15 15:30N 40°41' W 074°02'2 3.2
2018-Feb-15 15:00N 40°40' W 074°00'0 0.0
2018-Feb-15 14:30N 40°40' W 074°00'2 4.4
2018-Feb-15 14:00N 40°41' W 074°03'0 0.2
2018-Feb-15 13:30N 40°41' W 074°03'0 0.0
2018-Feb-15 13:00N 40°41' W 074°03'0 0.0
2018-Feb-15 12:30N 40°41' W 074°03'1 2.8
2018-Feb-15 12:00N 40°40' W 074°04'3 5.4
2018-Feb-15 11:30N 40°39' W 074°07'0 0.0
2018-Feb-15 11:00N 40°39' W 074°07'0 0.0
2018-Feb-15 10:28N 40°39' W 074°07'0 0.0
2018-Feb-15 10:00N 40°39' W 074°07'3 5.0
2018-Feb-15 09:30N 40°39' W 074°10'1 2.4
2018-Feb-15 09:00N 40°38' W 074°12'0 0.0
2018-Feb-15 08:30N 40°38' W 074°12'1 2.1
2018-Feb-15 08:00N 40°39' W 074°11'4 8.7
2018-Feb-15 07:30N 40°39' W 074°05'4 7.4
2018-Feb-15 07:00N 40°40' W 074°00'0 0.3
2018-Feb-15 06:30N 40°40' W 074°00'0 0.1
2018-Feb-15 06:00N 40°40' W 074°00'0 0.0
2018-Feb-15 05:30N 40°40' W 074°00'0 0.0
2018-Feb-15 05:00N 40°40' W 074°00'0 0.0
2018-Feb-15 04:30N 40°40' W 074°00'0 0.0
2018-Feb-15 04:00N 40°40' W 074°00'0 0.0
2018-Feb-15 03:30N 40°40' W 074°00'0 0.0
2018-Feb-15 03:00N 40°40' W 074°00'0 0.0
2018-Feb-15 02:30N 40°40' W 074°00'0 0.0
2018-Feb-15 02:00N 40°40' W 074°00'0 0.0
2018-Feb-15 01:30N 40°40' W 074°00'0 0.0
2018-Feb-15 01:00N 40°40' W 074°00'0 0.0
2018-Feb-15 00:30N 40°40' W 074°00'0 0.0
2018-Feb-15 00:00N 40°40' W 074°00'0 0.0
2018-Feb-14 23:30N 40°40' W 074°00'0 0.0
2018-Feb-14 23:00N 40°40' W 074°00'0 0.1
2018-Feb-14 22:30N 40°40' W 074°00'0 0.0
2018-Feb-14 22:00N 40°40' W 074°00'0 0.1
2018-Feb-14 21:30N 40°40' W 074°00'0 0.0
2018-Feb-14 21:00N 40°40' W 074°00'3 5.3
2018-Feb-14 20:30N 40°39' W 074°03'3 5.4
2018-Feb-14 20:00N 40°39' W 074°07'0 0.5
2018-Feb-14 19:29N 40°39' W 074°07'2 4.4
2018-Feb-14 19:00N 40°40' W 074°04'1 2.9
2018-Feb-14 18:30N 40°41' W 074°03'1 1.1
2018-Feb-14 18:00N 40°40' W 074°02'2 3.5
2018-Feb-14 17:30N 40°40' W 074°00'0 0.1
2018-Feb-14 17:00N 40°40' W 074°00'0 0.1
2018-Feb-14 16:30N 40°40' W 074°00'1 1.5
2018-Feb-14 16:00N 40°40' W 074°01'3 6.4
2018-Feb-14 15:30N 40°37' W 074°03'3 6.7
2018-Feb-14 15:00N 40°34' W 073°60'4 8.5
2018-Feb-14 14:30N 40°34' W 073°54'5 9.0
2018-Feb-14 13:58N 40°36' W 073°48'3 6.3
2018-Feb-14 13:30N 40°38' W 073°45'1 1.0
2018-Feb-14 12:57N 40°38' W 073°45'0 0.0
2018-Feb-14 12:12N 40°38' W 073°45'0 0.0
2018-Feb-14 09:54N 40°38' W 073°45'0 0.0
2018-Feb-14 09:28N 40°38' W 073°45'0 0.0
2018-Feb-14 08:59N 40°38' W 073°45'0 0.0
2018-Feb-14 08:29N 40°38' W 073°45'0 0.0
2018-Feb-14 07:52N 40°38' W 073°45'0 0.0
2018-Feb-14 07:30N 40°38' W 073°45'0 0.0
2018-Feb-14 00:13N 40°38' W 073°45'0 0.0
2018-Feb-14 00:00N 40°38' W 073°45'12 2.6
2018-Feb-13 19:12N 40°34' W 074°00'1 3.9
2018-Feb-13 18:54N 40°35' W 074°02'2 4.6
2018-Feb-13 18:30N 40°36' W 074°02'2 3.6
2018-Feb-13 18:00N 40°38' W 074°03'1 1.9
2018-Feb-13 17:30N 40°39' W 074°03'2 3.0
2018-Feb-13 17:00N 40°41' W 074°02'0 0.8
2018-Feb-13 16:30N 40°41' W 074°03'0 0.0
2018-Feb-13 16:00N 40°41' W 074°03'2 4.7
2018-Feb-13 15:30N 40°39' W 074°05'3 5.7
2018-Feb-13 15:00N 40°40' W 074°08'1 2.4
2018-Feb-13 14:30N 40°41' W 074°09'0 0.0
2018-Feb-13 14:00N 40°41' W 074°09'0 0.0
2018-Feb-13 13:30N 40°41' W 074°09'0 0.0
2018-Feb-13 13:00N 40°41' W 074°09'0 0.0
2018-Feb-13 12:30N 40°41' W 074°09'0 0.0
2018-Feb-13 12:00N 40°41' W 074°09'0 0.0
2018-Feb-13 11:29N 40°41' W 074°09'0 0.0
2018-Feb-13 11:00N 40°41' W 074°09'0 0.0
2018-Feb-13 10:30N 40°41' W 074°09'0 0.0
2018-Feb-13 10:00N 40°41' W 074°09'0 0.0
2018-Feb-13 09:30N 40°41' W 074°09'0 0.0
2018-Feb-13 09:00N 40°41' W 074°09'0 0.0
2018-Feb-13 08:30N 40°41' W 074°09'0 0.0
2018-Feb-13 08:00N 40°41' W 074°09'3 5.5
2018-Feb-13 07:29N 40°39' W 074°09'3 5.9
2018-Feb-13 07:00N 40°39' W 074°05'  
Track history (hours):
 
Tides and Currents Weather Stations Pressure Air Temp Water Temp Dewpoint Dewpoint Depression Visibility Wind Speed Wind Dir Waves Ship Positions

St. Andrews

Owner: Harley Marine Services, Inc, Seattle, WA. More information available from US FCC via Universal Licensing System and Coast Guard Vessel Documentation Center.

Last reported at 2018-Feb-23 06:40 UTC. Time now 2018-Feb-23 18:45 UTC.
Position N 40°32' W 074°15'.

Length 24 m.

Type: Tug. MMSI: 366998820.

Date/timePositionNaut miles runAvg speedWind from/ knotsBaromVisibWave heightAir tempDewpointWater temp
2018-Feb-23 06:40N 40°32' W 074°15'1 3.3
2018-Feb-23 06:17N 40°33' W 074°14'3 6.2
2018-Feb-23 05:52N 40°36' W 074°12'2 6.7
2018-Feb-23 05:30N 40°38' W 074°12'4 7.1
2018-Feb-23 05:00N 40°39' W 074°07'3 6.7
2018-Feb-23 04:30N 40°39' W 074°03'2 5.0
2018-Feb-23 04:00N 40°40' W 074°00'0 0.0
2018-Feb-23 03:30N 40°40' W 073°60'0 0.0
2018-Feb-23 03:00N 40°40' W 073°60'0 0.0
2018-Feb-23 02:30N 40°40' W 074°00'0 0.0
2018-Feb-23 02:00N 40°40' W 074°00'0 0.0
2018-Feb-23 01:30N 40°40' W 073°60'0 0.0
2018-Feb-23 01:00N 40°40' W 074°00'0 0.2
2018-Feb-23 00:30N 40°40' W 074°00'0 0.0
2018-Feb-23 00:00N 40°40' W 074°00'0 0.0
2018-Feb-22 23:30N 40°40' W 074°00'0 0.0
2018-Feb-22 23:00N 40°40' W 074°00'0 0.0
2018-Feb-22 22:30N 40°40' W 074°00'0 0.0
2018-Feb-22 22:00N 40°40' W 074°00'0 0.0
2018-Feb-22 21:30N 40°40' W 074°00'0 0.0
2018-Feb-22 21:00N 40°40' W 074°00'1 2.3
2018-Feb-22 20:30N 40°40' W 074°01'4 8.3
2018-Feb-22 20:00N 40°44' W 073°58'1 2.6
2018-Feb-22 19:30N 40°44' W 073°56'0 0.1
2018-Feb-22 18:58N 40°44' W 073°56'0 0.0
2018-Feb-22 18:30N 40°44' W 073°56'0 0.0
2018-Feb-22 18:00N 40°44' W 073°56'0 0.0
2018-Feb-22 17:30N 40°44' W 073°56'0 0.0
2018-Feb-22 17:00N 40°44' W 073°56'0 0.0
2018-Feb-22 16:30N 40°44' W 073°57'0 0.0
2018-Feb-22 15:59N 40°44' W 073°56'0 0.0
2018-Feb-22 15:30N 40°44' W 073°56'0 0.0
2018-Feb-22 15:00N 40°44' W 073°56'0 0.0
2018-Feb-22 14:29N 40°44' W 073°57'0 0.0
2018-Feb-22 13:59N 40°44' W 073°56'0 0.0
2018-Feb-22 13:30N 40°44' W 073°56'0 0.2
2018-Feb-22 13:00N 40°44' W 073°57'1 2.3
2018-Feb-22 12:30N 40°44' W 073°58'2 4.1
2018-Feb-22 12:00N 40°42' W 073°60'3 5.1
2018-Feb-22 11:30N 40°41' W 074°02'0 0.6
2018-Feb-22 11:00N 40°41' W 074°03'0 0.0
2018-Feb-22 10:30N 40°41' W 074°03'0 0.0
2018-Feb-22 10:00N 40°41' W 074°03'1 2.7
2018-Feb-22 09:30N 40°40' W 074°04'0 0.0
2018-Feb-22 09:00N 40°40' W 074°04'0 0.0
2018-Feb-22 08:30N 40°40' W 074°04'0 0.0
2018-Feb-22 08:00N 40°40' W 074°04'0 0.0
2018-Feb-22 07:30N 40°40' W 074°04'0 0.0
2018-Feb-22 07:00N 40°40' W 074°04'0 0.0
2018-Feb-22 06:30N 40°40' W 074°04'0 0.0
2018-Feb-22 06:00N 40°40' W 074°04'0 0.0
2018-Feb-22 05:30N 40°40' W 074°04'0 0.0
2018-Feb-22 05:00N 40°40' W 074°04'0 0.0
2018-Feb-22 04:30N 40°40' W 074°04'0 0.0
2018-Feb-22 04:00N 40°40' W 074°04'0 0.0
2018-Feb-22 03:30N 40°40' W 074°04'0 0.0
2018-Feb-22 03:00N 40°40' W 074°04'0 0.0
2018-Feb-22 02:30N 40°40' W 074°04'0 0.0
2018-Feb-22 02:00N 40°40' W 074°04'3 6.1
2018-Feb-22 01:30N 40°40' W 074°00'0 0.0
2018-Feb-22 01:00N 40°40' W 074°00'0 0.0
2018-Feb-22 00:30N 40°40' W 074°00'0 0.0
2018-Feb-22 00:00N 40°40' W 074°00'3 6.6
2018-Feb-21 23:30N 40°39' W 074°04'4 8.1
2018-Feb-21 23:00N 40°38' W 074°09'0 0.1
2018-Feb-21 22:30N 40°38' W 074°09'2 4.4
2018-Feb-21 22:00N 40°39' W 074°07'2 3.1
2018-Feb-21 21:30N 40°39' W 074°05'2 4.9
2018-Feb-21 21:00N 40°39' W 074°01'1 2.2
2018-Feb-21 20:30N 40°40' W 074°00'0 0.0
2018-Feb-21 20:00N 40°40' W 074°00'0 0.0
2018-Feb-21 19:30N 40°40' W 074°00'0 0.0
2018-Feb-21 19:00N 40°40' W 074°00'0 0.0
2018-Feb-21 18:30N 40°40' W 074°00'0 0.2
2018-Feb-21 18:00N 40°40' W 074°00'3 5.4
2018-Feb-21 17:30N 40°39' W 074°04'0 0.1
2018-Feb-21 17:00N 40°39' W 074°04'1 1.5
2018-Feb-21 16:30N 40°40' W 074°04'1 2.2
2018-Feb-21 16:00N 40°39' W 074°03'2 4.4
2018-Feb-21 15:30N 40°40' W 074°00'0 0.1
2018-Feb-21 15:00N 40°40' W 074°00'3 5.8
2018-Feb-21 14:30N 40°39' W 074°04'4 8.8
2018-Feb-21 14:00N 40°38' W 074°09'0 0.4
2018-Feb-21 13:30N 40°38' W 074°09'3 5.9
2018-Feb-21 13:00N 40°39' W 074°05'0 0.0
2018-Feb-21 12:30N 40°39' W 074°05'0 0.2
2018-Feb-21 12:00N 40°39' W 074°05'0 0.0
2018-Feb-21 11:30N 40°39' W 074°05'1 1.2
2018-Feb-21 11:00N 40°39' W 074°05'1 2.0
2018-Feb-21 10:30N 40°40' W 074°05'0 0.0
2018-Feb-21 10:00N 40°40' W 074°05'0 0.0
2018-Feb-21 09:30N 40°40' W 074°05'0 0.0
2018-Feb-21 09:00N 40°40' W 074°05'0 0.0
2018-Feb-21 08:30N 40°40' W 074°05'0 0.0
2018-Feb-21 08:00N 40°40' W 074°05'0 0.0
2018-Feb-21 07:30N 40°40' W 074°05'0 0.0
2018-Feb-21 07:00N 40°40' W 074°05'0 0.0
2018-Feb-21 06:30N 40°40' W 074°05'0 0.0
2018-Feb-21 05:58N 40°40' W 074°05'0 0.0
2018-Feb-21 05:30N 40°40' W 074°05'0 0.0
2018-Feb-21 05:00N 40°40' W 074°05'1 2.4
2018-Feb-21 04:30N 40°39' W 074°05'0 0.5
2018-Feb-21 04:00N 40°39' W 074°06'2 3.9
2018-Feb-21 03:30N 40°39' W 074°08'1 2.5
2018-Feb-21 03:00N 40°39' W 074°10'0 0.1
2018-Feb-21 02:30N 40°39' W 074°10'0 0.0
2018-Feb-21 01:59N 40°39' W 074°10'0 0.0
2018-Feb-21 01:30N 40°39' W 074°10'0 0.0
2018-Feb-21 00:59N 40°39' W 074°10'0 0.0
2018-Feb-21 00:22N 40°39' W 074°10'0 0.0
2018-Feb-20 23:54N 40°39' W 074°10'0 0.0
2018-Feb-20 23:28N 40°39' W 074°10'0 0.0
2018-Feb-20 23:00N 40°39' W 074°10'1 1.1
2018-Feb-20 22:29N 40°38' W 074°09'4 8.4
2018-Feb-20 22:00N 40°39' W 074°04'3 6.2
2018-Feb-20 21:30N 40°40' W 074°00'0 0.0
2018-Feb-20 21:00N 40°40' W 074°00'0 0.0
2018-Feb-20 20:30N 40°40' W 074°00'0 0.0
2018-Feb-20 20:00N 40°40' W 074°00'0 0.0
2018-Feb-20 19:30N 40°40' W 074°00'0 0.0
2018-Feb-20 19:00N 40°40' W 074°00'0 0.0
2018-Feb-20 18:30N 40°40' W 074°00'0 0.0
2018-Feb-20 18:00N 40°40' W 074°00'0 0.0
2018-Feb-20 17:30N 40°40' W 074°00'0 0.0
2018-Feb-20 17:00N 40°40' W 074°00'0 0.0
2018-Feb-20 16:30N 40°40' W 074°00'0 0.0
2018-Feb-20 16:00N 40°40' W 074°00'0 0.0
2018-Feb-20 15:30N 40°40' W 074°00'3 5.6
2018-Feb-20 15:00N 40°40' W 074°04'0 0.8
2018-Feb-20 14:30N 40°40' W 074°04'0 0.0
2018-Feb-20 14:00N 40°40' W 074°04'0 0.0
2018-Feb-20 13:30N 40°40' W 074°04'0 0.0
2018-Feb-20 13:00N 40°40' W 074°04'0 0.0
2018-Feb-20 12:30N 40°40' W 074°04'0 0.0
2018-Feb-20 12:00N 40°40' W 074°04'0 0.0
2018-Feb-20 11:30N 40°40' W 074°04'0 0.0
2018-Feb-20 11:00N 40°40' W 074°04'1 2.0
2018-Feb-20 10:30N 40°39' W 074°05'0 0.6
2018-Feb-20 10:00N 40°39' W 074°05'3 5.7
2018-Feb-20 09:30N 40°40' W 074°02'1 1.2
2018-Feb-20 09:00N 40°40' W 074°01'0 0.0
2018-Feb-20 08:30N 40°40' W 074°01'0 0.0
2018-Feb-20 08:00N 40°40' W 074°01'0 0.0
2018-Feb-20 07:29N 40°40' W 074°01'0 0.0
2018-Feb-20 07:00N 40°40' W 074°01'0 0.0
2018-Feb-20 06:29N 40°40' W 074°01'0 0.0
2018-Feb-20 06:00N 40°40' W 074°01'0 0.0
2018-Feb-20 05:30N 40°40' W 074°01'0 0.0
2018-Feb-20 05:00N 40°40' W 074°01'0 0.0
2018-Feb-20 04:30N 40°40' W 074°01'0 0.0
2018-Feb-20 04:00N 40°40' W 074°01'0 0.0
2018-Feb-20 03:30N 40°40' W 074°01'0 0.0
2018-Feb-20 03:00N 40°40' W 074°01'0 0.0
2018-Feb-20 02:30N 40°40' W 074°01'0 0.0
2018-Feb-20 02:00N 40°40' W 074°01'0 0.0
2018-Feb-20 01:30N 40°40' W 074°01'0 0.0
2018-Feb-20 01:00N 40°40' W 074°01'0 0.0
2018-Feb-20 00:30N 40°40' W 074°01'0 0.0
2018-Feb-20 00:00N 40°40' W 074°01'0 0.0
2018-Feb-19 23:30N 40°40' W 074°01'0 0.0
2018-Feb-19 23:00N 40°40' W 074°01'0 0.0
2018-Feb-19 22:30N 40°40' W 074°01'0 0.0
2018-Feb-19 22:00N 40°40' W 074°01'0 0.0
2018-Feb-19 21:29N 40°40' W 074°01'0 0.0
2018-Feb-19 21:00N 40°40' W 074°01'0 0.0
2018-Feb-19 20:30N 40°40' W 074°01'2 3.3
2018-Feb-19 20:00N 40°41' W 074°03'2 3.0
2018-Feb-19 19:30N 40°40' W 074°05'0 0.2
2018-Feb-19 19:00N 40°40' W 074°05'0 0.0
2018-Feb-19 18:30N 40°40' W 074°05'0 0.0
2018-Feb-19 18:00N 40°40' W 074°05'0 0.0
2018-Feb-19 17:30N 40°40' W 074°05'0 0.0
2018-Feb-19 16:59N 40°40' W 074°05'0 0.0
2018-Feb-19 16:30N 40°40' W 074°05'0 0.0
2018-Feb-19 16:00N 40°40' W 074°05'0 0.0
2018-Feb-19 15:30N 40°40' W 074°05'0 0.0
2018-Feb-19 15:00N 40°40' W 074°05'0 0.0
2018-Feb-19 14:30N 40°40' W 074°05'0 0.0
2018-Feb-19 14:00N 40°40' W 074°05'0 0.0
2018-Feb-19 13:30N 40°40' W 074°05'0 0.0
2018-Feb-19 13:00N 40°40' W 074°05'0 0.0
2018-Feb-19 12:30N 40°40' W 074°05'0 0.0
2018-Feb-19 12:00N 40°40' W 074°05'0 0.0
2018-Feb-19 11:30N 40°40' W 074°05'0 0.0
2018-Feb-19 11:00N 40°40' W 074°05'0 0.0
2018-Feb-19 10:30N 40°40' W 074°05'0 0.0
2018-Feb-19 09:59N 40°40' W 074°05'0 0.1
2018-Feb-19 09:30N 40°40' W 074°05'1 2.6
2018-Feb-19 08:59N 40°39' W 074°05'3 5.1
2018-Feb-19 08:28N 40°39' W 074°09'0 0.7
2018-Feb-19 08:00N 40°40' W 074°09'0 0.0
2018-Feb-19 07:30N 40°40' W 074°09'0 0.0
2018-Feb-19 07:00N 40°40' W 074°09'0 0.0
2018-Feb-19 06:30N 40°40' W 074°09'0 0.0
2018-Feb-19 06:00N 40°40' W 074°09'0 0.0
2018-Feb-19 05:30N 40°40' W 074°09'0 0.0
2018-Feb-19 05:00N 40°40' W 074°09'0 0.0
2018-Feb-19 04:30N 40°40' W 074°09'0 0.0
2018-Feb-19 04:00N 40°40' W 074°09'0 0.0
2018-Feb-19 03:30N 40°40' W 074°09'0 0.0
2018-Feb-19 03:00N 40°40' W 074°09'0 0.0
2018-Feb-19 02:30N 40°40' W 074°09'0 0.0
2018-Feb-19 02:00N 40°40' W 074°09'0 0.0
2018-Feb-19 01:30N 40°40' W 074°09'0 0.0
2018-Feb-19 01:00N 40°40' W 074°09'0 0.0
2018-Feb-19 00:30N 40°40' W 074°09'0 0.0
2018-Feb-19 00:00N 40°40' W 074°09'0 0.0
2018-Feb-18 23:30N 40°40' W 074°09'0 0.0
2018-Feb-18 23:00N 40°40' W 074°09'0 0.0
2018-Feb-18 22:30N 40°40' W 074°09'1 2.7
2018-Feb-18 22:00N 40°39' W 074°08'3 6.7
2018-Feb-18 21:30N 40°40' W 074°04'1 2.3
2018-Feb-18 21:00N 40°41' W 074°03'4 8.2
2018-Feb-18 20:29N 40°39' W 074°08'3 6.5
2018-Feb-18 20:00N 40°38' W 074°12'0 0.0
2018-Feb-18 19:30N 40°38' W 074°12'0 0.0
2018-Feb-18 19:00N 40°38' W 074°12'2 3.7
2018-Feb-18 18:30N 40°37' W 074°12'1 1.2
2018-Feb-18 18:00N 40°36' W 074°12'2 3.2
2018-Feb-18 17:27N 40°38' W 074°12'0 0.0
2018-Feb-18 17:00N 40°38' W 074°12'0 0.2
2018-Feb-18 16:25N 40°38' W 074°12'2 5.3
2018-Feb-18 16:00N 40°39' W 074°09'5 9.0
2018-Feb-18 15:30N 40°40' W 074°04'2 4.4
2018-Feb-18 15:00N 40°40' W 074°01'1 1.3
2018-Feb-18 14:30N 40°40' W 074°00'0 0.0
2018-Feb-18 14:00N 40°40' W 074°00'0 0.0
2018-Feb-18 13:30N 40°40' W 074°00'0 0.0
2018-Feb-18 13:00N 40°40' W 074°00'0 0.0
2018-Feb-18 12:30N 40°40' W 074°00'0 0.1
2018-Feb-18 12:00N 40°40' W 074°00'0 0.0
2018-Feb-18 11:30N 40°40' W 074°00'0 0.0
2018-Feb-18 10:59N 40°40' W 074°00'0 0.0
2018-Feb-18 10:30N 40°40' W 074°00'0 0.0
2018-Feb-18 10:00N 40°40' W 074°00'0 0.0
2018-Feb-18 09:30N 40°40' W 074°00'0 0.0
2018-Feb-18 09:00N 40°40' W 074°00'0 0.0
2018-Feb-18 08:30N 40°40' W 074°00'0 0.0
2018-Feb-18 08:00N 40°40' W 074°00'0 0.0
2018-Feb-18 07:30N 40°40' W 074°00'0 0.0
2018-Feb-18 07:00N 40°40' W 074°00'0 0.0
2018-Feb-18 06:30N 40°40' W 074°00'0 0.0
2018-Feb-18 06:00N 40°40' W 074°00'0 0.0
2018-Feb-18 05:30N 40°40' W 074°00'0 0.0
2018-Feb-18 05:00N 40°40' W 074°00'0 0.0
2018-Feb-18 04:28N 40°40' W 074°00'0 0.0
2018-Feb-18 04:00N 40°40' W 074°00'0 0.0
2018-Feb-18 03:30N 40°40' W 074°00'0 0.0
2018-Feb-18 03:00N 40°40' W 074°00'0 0.0
2018-Feb-18 02:30N 40°40' W 074°00'0 0.0
2018-Feb-18 02:00N 40°40' W 074°00'0 0.0
2018-Feb-18 01:30N 40°40' W 074°00'0 0.0
2018-Feb-18 01:00N 40°40' W 074°00'0 0.0
2018-Feb-18 00:30N 40°40' W 074°00'1 1.0
2018-Feb-18 00:00N 40°40' W 074°01'4 7.0
2018-Feb-17 23:30N 40°37' W 074°03'4 7.6
2018-Feb-17 23:00N 40°34' W 073°59'3 6.5
2018-Feb-17 22:29N 40°34' W 073°54'3 6.4
2018-Feb-17 22:00N 40°35' W 073°51'4 6.6
2018-Feb-17 21:28N 40°37' W 073°47'10 1.1
2018-Feb-17 11:59N 40°34' W 073°59'3 5.2
2018-Feb-17 11:30N 40°35' W 074°02'3 5.6
2018-Feb-17 11:00N 40°38' W 074°03'3 5.4
2018-Feb-17 10:30N 40°41' W 074°03'0 0.0
2018-Feb-17 10:00N 40°41' W 074°03'0 0.0
2018-Feb-17 09:30N 40°41' W 074°03'0 0.0
2018-Feb-17 09:00N 40°41' W 074°03'0 0.0
2018-Feb-17 08:30N 40°41' W 074°03'0 0.0
2018-Feb-17 08:00N 40°41' W 074°03'0 0.0
2018-Feb-17 07:30N 40°41' W 074°03'0 0.0
2018-Feb-17 07:00N 40°41' W 074°03'0 0.0
2018-Feb-17 06:30N 40°41' W 074°03'0 0.0
2018-Feb-17 06:00N 40°41' W 074°03'0 0.0
2018-Feb-17 05:30N 40°41' W 074°03'0 0.0
2018-Feb-17 05:00N 40°41' W 074°03'0 0.0
2018-Feb-17 04:30N 40°41' W 074°03'0 0.0
2018-Feb-17 04:00N 40°41' W 074°03'0 0.1
2018-Feb-17 03:30N 40°41' W 074°03'0 0.0
2018-Feb-17 03:00N 40°41' W 074°03'0 0.0
2018-Feb-17 02:30N 40°41' W 074°03'0 0.0
2018-Feb-17 02:00N 40°41' W 074°03'0 0.0
2018-Feb-17 01:30N 40°41' W 074°03'0 0.0
2018-Feb-17 01:00N 40°41' W 074°03'0 0.0
2018-Feb-17 00:30N 40°41' W 074°03'0 0.6
2018-Feb-17 00:00N 40°41' W 074°03'2 4.4
2018-Feb-16 23:30N 40°39' W 074°05'2 4.5
2018-Feb-16 23:00N 40°39' W 074°08'1 2.8
2018-Feb-16 22:30N 40°40' W 074°08'3 5.3
2018-Feb-16 22:00N 40°42' W 074°07'0 0.2
2018-Feb-16 21:30N 40°42' W 074°07'0 0.0
2018-Feb-16 21:00N 40°42' W 074°07'0 0.0
2018-Feb-16 20:30N 40°42' W 074°07'0 0.0
2018-Feb-16 20:00N 40°42' W 074°07'0 0.0
2018-Feb-16 19:30N 40°42' W 074°07'0 0.0
2018-Feb-16 19:00N 40°42' W 074°07'0 0.0
2018-Feb-16 18:30N 40°42' W 074°07'0 0.0
2018-Feb-16 18:00N 40°42' W 074°07'0 0.0
2018-Feb-16 17:30N 40°42' W 074°07'0 0.0
2018-Feb-16 17:00N 40°42' W 074°07'0 0.0
2018-Feb-16 16:30N 40°42' W 074°07'0 0.0
2018-Feb-16 16:00N 40°42' W 074°07'0 0.0
2018-Feb-16 15:30N 40°42' W 074°07'0 0.0
2018-Feb-16 15:00N 40°42' W 074°07'0 0.0
2018-Feb-16 14:30N 40°42' W 074°07'0 0.0
2018-Feb-16 13:58N 40°42' W 074°07'0 0.1
2018-Feb-16 13:30N 40°42' W 074°07'0 0.0
2018-Feb-16 13:00N 40°42' W 074°07'2 3.9
2018-Feb-16 12:30N 40°41' W 074°08'2 4.2
2018-Feb-16 12:00N 40°39' W 074°06'2 4.0
2018-Feb-16 11:30N 40°39' W 074°04'3 5.6
2018-Feb-16 10:59N 40°40' W 074°00'0 0.0
2018-Feb-16 10:30N 40°40' W 074°00'1 1.1
2018-Feb-16 10:00N 40°40' W 074°01'3 6.0
2018-Feb-16 09:30N 40°39' W 074°05'1 1.9
2018-Feb-16 09:00N 40°39' W 074°06'0 0.0
2018-Feb-16 08:30N 40°39' W 074°06'0 0.0
2018-Feb-16 08:00N 40°39' W 074°06'0 0.0
2018-Feb-16 07:30N 40°39' W 074°06'0 0.0
2018-Feb-16 07:00N 40°39' W 074°06'0 0.0
2018-Feb-16 06:29N 40°39' W 074°06'0 0.0
2018-Feb-16 05:59N 40°39' W 074°06'0 0.0
2018-Feb-16 05:30N 40°39' W 074°06'0 0.0
2018-Feb-16 05:00N 40°39' W 074°06'0 0.0
2018-Feb-16 04:30N 40°39' W 074°06'0 0.0
2018-Feb-16 04:00N 40°39' W 074°06'0 0.0
2018-Feb-16 03:30N 40°39' W 074°06'0 0.0
2018-Feb-16 03:00N 40°39' W 074°06'0 0.0
2018-Feb-16 02:30N 40°39' W 074°06'0 0.0
2018-Feb-16 02:00N 40°39' W 074°06'3 6.3
2018-Feb-16 01:30N 40°41' W 074°03'0 0.3
2018-Feb-16 01:00N 40°41' W 074°03'0 0.0
2018-Feb-16 00:30N 40°41' W 074°03'0 0.1
2018-Feb-16 00:00N 40°41' W 074°03'0 0.1
2018-Feb-15 23:30N 40°41' W 074°03'2 3.7
2018-Feb-15 23:00N 40°40' W 074°01'1 1.2
2018-Feb-15 22:30N 40°40' W 074°00'0 0.0
2018-Feb-15 22:00N 40°40' W 074°00'0 0.0
2018-Feb-15 21:30N 40°40' W 074°00'0 0.0
2018-Feb-15 21:00N 40°40' W 074°00'0 0.0
2018-Feb-15 20:30N 40°40' W 074°00'0 0.0
2018-Feb-15 20:00N 40°40' W 074°00'0 0.0
2018-Feb-15 19:30N 40°40' W 074°00'0 0.0
2018-Feb-15 19:00N 40°40' W 074°00'0 0.0
2018-Feb-15 18:30N 40°40' W 074°00'0 0.0
2018-Feb-15 18:00N 40°40' W 074°00'0 0.0
2018-Feb-15 17:30N 40°40' W 074°00'0 0.0
2018-Feb-15 17:00N 40°40' W 074°00'0 0.0
2018-Feb-15 16:30N 40°40' W 074°00'0 0.0
2018-Feb-15 16:00N 40°40' W 074°00'2 3.2
2018-Feb-15 15:30N 40°41' W 074°02'2 3.2
2018-Feb-15 15:00N 40°40' W 074°00'0 0.0
2018-Feb-15 14:30N 40°40' W 074°00'2 4.4
2018-Feb-15 14:00N 40°41' W 074°03'0 0.2
2018-Feb-15 13:30N 40°41' W 074°03'0 0.0
2018-Feb-15 13:00N 40°41' W 074°03'0 0.0
2018-Feb-15 12:30N 40°41' W 074°03'1 2.8
2018-Feb-15 12:00N 40°40' W 074°04'3 5.4
2018-Feb-15 11:30N 40°39' W 074°07'0 0.0
2018-Feb-15 11:00N 40°39' W 074°07'0 0.0
2018-Feb-15 10:28N 40°39' W 074°07'0 0.0
2018-Feb-15 10:00N 40°39' W 074°07'3 5.0
2018-Feb-15 09:30N 40°39' W 074°10'1 2.4
2018-Feb-15 09:00N 40°38' W 074°12'0 0.0
2018-Feb-15 08:30N 40°38' W 074°12'1 2.1
2018-Feb-15 08:00N 40°39' W 074°11'4 8.7
2018-Feb-15 07:30N 40°39' W 074°05'4 7.4
2018-Feb-15 07:00N 40°40' W 074°00'0 0.3
2018-Feb-15 06:30N 40°40' W 074°00'0 0.1
2018-Feb-15 06:00N 40°40' W 074°00'0 0.0
2018-Feb-15 05:30N 40°40' W 074°00'0 0.0
2018-Feb-15 05:00N 40°40' W 074°00'0 0.0
2018-Feb-15 04:30N 40°40' W 074°00'0 0.0
2018-Feb-15 04:00N 40°40' W 074°00'0 0.0
2018-Feb-15 03:30N 40°40' W 074°00'0 0.0
2018-Feb-15 03:00N 40°40' W 074°00'0 0.0
2018-Feb-15 02:30N 40°40' W 074°00'0 0.0
2018-Feb-15 02:00N 40°40' W 074°00'0 0.0
2018-Feb-15 01:30N 40°40' W 074°00'0 0.0
2018-Feb-15 01:00N 40°40' W 074°00'0 0.0
2018-Feb-15 00:30N 40°40' W 074°00'0 0.0
2018-Feb-15 00:00N 40°40' W 074°00'0 0.0
2018-Feb-14 23:30N 40°40' W 074°00'0 0.0
2018-Feb-14 23:00N 40°40' W 074°00'0 0.1
2018-Feb-14 22:30N 40°40' W 074°00'0 0.0
2018-Feb-14 22:00N 40°40' W 074°00'0 0.1
2018-Feb-14 21:30N 40°40' W 074°00'0 0.0
2018-Feb-14 21:00N 40°40' W 074°00'3 5.3
2018-Feb-14 20:30N 40°39' W 074°03'3 5.4
2018-Feb-14 20:00N 40°39' W 074°07'0 0.5
2018-Feb-14 19:29N 40°39' W 074°07'2 4.4
2018-Feb-14 19:00N 40°40' W 074°04'1 2.9
2018-Feb-14 18:30N 40°41' W 074°03'1 1.1
2018-Feb-14 18:00N 40°40' W 074°02'2 3.5
2018-Feb-14 17:30N 40°40' W 074°00'0 0.1
2018-Feb-14 17:00N 40°40' W 074°00'0 0.1
2018-Feb-14 16:30N 40°40' W 074°00'1 1.5
2018-Feb-14 16:00N 40°40' W 074°01'3 6.4
2018-Feb-14 15:30N 40°37' W 074°03'3 6.7
2018-Feb-14 15:00N 40°34' W 073°60'4 8.5
2018-Feb-14 14:30N 40°34' W 073°54'5 9.0
2018-Feb-14 13:58N 40°36' W 073°48'3 6.3
2018-Feb-14 13:30N 40°38' W 073°45'1 1.0
2018-Feb-14 12:57N 40°38' W 073°45'0 0.0
2018-Feb-14 12:12N 40°38' W 073°45'0 0.0
2018-Feb-14 09:54N 40°38' W 073°45'0 0.0
2018-Feb-14 09:28N 40°38' W 073°45'0 0.0
2018-Feb-14 08:59N 40°38' W 073°45'0 0.0
2018-Feb-14 08:29N 40°38' W 073°45'0 0.0
2018-Feb-14 07:52N 40°38' W 073°45'0 0.0
2018-Feb-14 07:30N 40°38' W 073°45'0 0.0
2018-Feb-14 00:13N 40°38' W 073°45'0 0.0
2018-Feb-14 00:00N 40°38' W 073°45'12 2.6
2018-Feb-13 19:12N 40°34' W 074°00'1 3.9
2018-Feb-13 18:54N 40°35' W 074°02'2 4.6
2018-Feb-13 18:30N 40°36' W 074°02'2 3.6
2018-Feb-13 18:00N 40°38' W 074°03'1 1.9
2018-Feb-13 17:30N 40°39' W 074°03'2 3.0
2018-Feb-13 17:00N 40°41' W 074°02'0 0.8
2018-Feb-13 16:30N 40°41' W 074°03'0 0.0
2018-Feb-13 16:00N 40°41' W 074°03'2 4.7
2018-Feb-13 15:30N 40°39' W 074°05'3 5.7
2018-Feb-13 15:00N 40°40' W 074°08'1 2.4
2018-Feb-13 14:30N 40°41' W 074°09'0 0.0
2018-Feb-13 14:00N 40°41' W 074°09'0 0.0
2018-Feb-13 13:30N 40°41' W 074°09'0 0.0
2018-Feb-13 13:00N 40°41' W 074°09'0 0.0
2018-Feb-13 12:30N 40°41' W 074°09'0 0.0
2018-Feb-13 12:00N 40°41' W 074°09'0 0.0
2018-Feb-13 11:29N 40°41' W 074°09'0 0.0
2018-Feb-13 11:00N 40°41' W 074°09'0 0.0
2018-Feb-13 10:30N 40°41' W 074°09'0 0.0
2018-Feb-13 10:00N 40°41' W 074°09'0 0.0
2018-Feb-13 09:30N 40°41' W 074°09'0 0.0
2018-Feb-13 09:00N 40°41' W 074°09'0 0.0
2018-Feb-13 08:30N 40°41' W 074°09'0 0.0
2018-Feb-13 08:00N 40°41' W 074°09'3 5.5
2018-Feb-13 07:29N 40°39' W 074°09'3 5.9
2018-Feb-13 07:00N 40°39' W 074°05'  

Dump ship's entire track history